createdAt,value
2023-01-13T00:00:53.244Z,83.29
2023-01-13T00:01:53.235Z,82.59
2023-01-13T00:02:53.201Z,84.93
2023-01-13T00:03:53.197Z,82.85
2023-01-13T00:04:53.359Z,85.49
2023-01-13T00:05:53.179Z,84.15
2023-01-13T00:06:53.182Z,85.39
2023-01-13T00:07:53.165Z,86.00
2023-01-13T00:08:53.157Z,81.73
2023-01-13T00:09:53.149Z,85.54
2023-01-13T00:10:53.140Z,85.71
2023-01-13T00:11:53.130Z,85.56
2023-01-13T00:12:53.117Z,86.27
2023-01-13T00:13:53.129Z,83.02
2023-01-13T00:14:53.111Z,85.49
2023-01-13T00:15:53.109Z,84.84
2023-01-13T00:16:53.094Z,85.19
2023-01-13T00:17:53.096Z,85.06
2023-01-13T00:18:53.087Z,82.97
2023-01-13T00:19:53.079Z,84.53
2023-01-13T00:20:53.090Z,84.63
2023-01-13T00:21:53.070Z,84.02
2023-01-13T00:22:53.065Z,82.82
2023-01-13T00:23:53.057Z,83.21
2023-01-13T00:24:53.058Z,83.58
2023-01-13T00:25:53.055Z,83.64
2023-01-13T00:26:53.048Z,83.56
2023-01-13T00:27:53.052Z,83.88
2023-01-13T00:28:53.052Z,82.51
2023-01-13T00:29:53.035Z,83.48
2023-01-13T00:30:53.069Z,85.93
2023-01-13T00:31:53.077Z,83.46
2023-01-13T00:32:53.005Z,84.49
2023-01-13T00:33:53.004Z,84.38
2023-01-13T00:34:53.021Z,84.93
2023-01-13T00:35:52.996Z,83.48
2023-01-13T00:36:52.989Z,83.97
2023-01-13T00:37:52.989Z,85.52
2023-01-13T00:38:52.987Z,83.47
2023-01-13T00:39:52.975Z,83.24
2023-01-13T00:40:52.974Z,85.28
2023-01-13T00:41:52.956Z,85.14
2023-01-13T00:42:52.956Z,84.54
2023-01-13T00:43:52.970Z,81.92
2023-01-13T00:44:52.934Z,84.35
2023-01-13T00:45:52.925Z,81.84
2023-01-13T00:46:52.941Z,83.15
2023-01-13T00:47:52.909Z,84.21
2023-01-13T00:48:52.931Z,84.43
2023-01-13T00:49:52.899Z,83.90
2023-01-13T00:50:52.897Z,82.73
2023-01-13T00:51:52.881Z,84.12
2023-01-13T00:52:52.872Z,83.06
2023-01-13T00:53:52.871Z,86.08
2023-01-13T00:54:52.851Z,84.01
2023-01-13T00:55:52.843Z,83.56
2023-01-13T00:56:52.836Z,84.37
2023-01-13T00:57:52.822Z,83.78
2023-01-13T00:58:52.817Z,82.86
2023-01-13T00:59:52.799Z,83.09
2023-01-13T01:00:52.873Z,83.39
2023-01-13T01:01:52.889Z,83.95
2023-01-13T01:02:52.768Z,84.09
2023-01-13T01:03:52.766Z,83.86
2023-01-13T01:04:52.749Z,85.32
2023-01-13T01:05:52.738Z,83.46
2023-01-13T01:06:52.727Z,85.41
2023-01-13T01:07:52.725Z,83.16
2023-01-13T01:08:52.714Z,84.02
2023-01-13T01:09:52.714Z,84.79
2023-01-13T01:10:52.717Z,82.78
2023-01-13T01:11:52.730Z,81.90
2023-01-13T01:12:52.726Z,85.47
2023-01-13T01:13:52.770Z,84.60
2023-01-13T01:14:52.724Z,81.09
2023-01-13T01:15:52.731Z,82.36
2023-01-13T01:16:52.707Z,83.59
2023-01-13T01:17:52.691Z,83.41
2023-01-13T01:18:52.676Z,83.76
2023-01-13T01:19:52.662Z,83.42
2023-01-13T01:20:52.665Z,84.61
2023-01-13T01:21:52.650Z,81.10
2023-01-13T01:22:52.636Z,85.41
2023-01-13T01:23:52.644Z,83.62
2023-01-13T01:24:52.624Z,82.73
2023-01-13T01:25:52.620Z,81.76
2023-01-13T01:26:52.616Z,81.97
2023-01-13T01:27:52.616Z,82.23
2023-01-13T01:28:52.617Z,82.52
2023-01-13T01:29:52.610Z,82.41
2023-01-13T01:30:52.606Z,83.74
2023-01-13T01:31:52.611Z,83.33
2023-01-13T01:32:52.607Z,83.02
2023-01-13T01:33:52.593Z,83.09
2023-01-13T01:34:52.589Z,83.13
2023-01-13T01:35:52.575Z,83.50
2023-01-13T01:36:52.584Z,82.82
2023-01-13T01:37:52.557Z,83.91
2023-01-13T01:38:52.552Z,83.98
2023-01-13T01:39:52.544Z,83.70
2023-01-13T01:40:52.543Z,82.92
2023-01-13T01:41:52.527Z,83.91
2023-01-13T01:42:52.508Z,83.11
2023-01-13T01:43:52.494Z,83.93
2023-01-13T01:44:52.488Z,84.04
2023-01-13T01:45:52.474Z,84.20
2023-01-13T01:46:52.519Z,83.07
2023-01-13T01:47:52.451Z,84.04
2023-01-13T01:48:52.442Z,83.73
2023-01-13T01:49:52.457Z,81.95
2023-01-13T01:50:52.421Z,84.22
2023-01-13T01:51:52.411Z,82.68
2023-01-13T01:52:52.409Z,82.82
2023-01-13T01:53:52.390Z,83.02
2023-01-13T01:54:52.385Z,82.82
2023-01-13T01:55:52.381Z,83.94
2023-01-13T01:56:52.376Z,82.79
2023-01-13T01:57:52.365Z,83.89
2023-01-13T01:58:52.358Z,82.89
2023-01-13T01:59:52.364Z,83.11
2023-01-13T02:00:52.491Z,83.31
2023-01-13T02:01:52.468Z,83.06
2023-01-13T02:02:52.341Z,84.30
2023-01-13T02:03:52.339Z,84.04
2023-01-13T02:04:52.324Z,83.89
2023-01-13T02:05:52.327Z,83.47
2023-01-13T02:06:52.324Z,83.80
2023-01-13T02:07:52.328Z,84.13
2023-01-13T02:08:52.314Z,84.15
2023-01-13T02:09:52.314Z,82.96
2023-01-13T02:10:52.307Z,83.03
2023-01-13T02:11:52.319Z,81.43
2023-01-13T02:12:52.310Z,83.00
2023-01-13T03:52:51.541Z,85.51
2023-01-13T03:53:51.534Z,83.74
2023-01-13T03:54:51.518Z,83.97
2023-01-13T05:04:51.121Z,82.02
2023-01-13T05:05:50.981Z,82.36
2023-01-13T05:06:50.965Z,81.32
2023-01-13T05:07:50.960Z,83.02
2023-01-13T05:08:50.954Z,81.37
2023-01-13T05:09:50.948Z,83.34
2023-01-13T05:10:50.946Z,83.49
2023-01-13T05:11:50.919Z,83.38
2023-01-13T05:12:50.945Z,82.41
2023-01-13T05:13:50.896Z,81.89
2023-01-13T05:14:50.887Z,82.27
2023-01-13T05:15:50.955Z,82.60
2023-01-13T05:16:50.864Z,82.62
2023-01-13T05:17:50.860Z,82.58
2023-01-13T05:18:50.830Z,81.56
2023-01-13T05:19:50.814Z,81.73
2023-01-13T05:20:50.802Z,82.01
2023-01-13T05:21:50.792Z,82.14
2023-01-13T05:22:50.789Z,82.10
2023-01-13T05:23:50.753Z,82.53
2023-01-13T05:24:50.729Z,82.52
2023-01-13T05:25:50.749Z,81.30
2023-01-13T05:26:50.704Z,79.52
2023-01-13T05:27:50.689Z,80.96
2023-01-13T05:28:50.669Z,81.09
2023-01-13T05:29:50.659Z,81.60
2023-01-13T05:30:50.683Z,81.17
2023-01-13T05:31:50.643Z,80.35
2023-01-13T05:32:50.619Z,81.96
2023-01-13T05:33:50.619Z,82.06
2023-01-13T05:34:50.597Z,81.71
2023-01-13T05:35:50.606Z,81.92
2023-01-13T05:36:50.600Z,81.13
2023-01-13T05:37:50.562Z,82.41
2023-01-13T05:38:50.542Z,81.51
2023-01-13T05:39:50.532Z,81.61
2023-01-13T05:40:50.522Z,81.00
2023-01-13T05:41:50.505Z,81.37
2023-01-13T05:42:50.501Z,81.63
2023-01-13T05:43:50.477Z,81.82
2023-01-13T05:44:50.456Z,81.68
2023-01-13T05:45:50.447Z,81.84
2023-01-13T05:46:50.448Z,80.41
2023-01-13T05:47:50.419Z,81.80
2023-01-13T05:48:50.388Z,80.70
2023-01-13T05:49:50.375Z,81.72
2023-01-13T05:50:50.377Z,81.02
2023-01-13T05:51:50.356Z,80.32
2023-01-13T05:52:50.357Z,81.27
2023-01-13T05:53:50.341Z,80.67
2023-01-13T05:54:50.319Z,80.86
2023-01-13T05:55:50.313Z,81.60
2023-01-13T05:56:50.292Z,79.96
2023-01-13T05:57:50.287Z,80.88
2023-01-13T05:58:50.267Z,79.86
2023-01-13T05:59:50.254Z,80.03
2023-01-13T06:00:50.261Z,80.71
2023-01-13T06:01:50.224Z,79.36
2023-01-13T06:02:50.286Z,78.82
2023-01-13T06:03:50.201Z,78.84
2023-01-13T06:04:50.189Z,78.01
2023-01-13T06:05:50.173Z,76.45
2023-01-13T06:06:50.153Z,77.20
2023-01-13T06:07:50.158Z,77.00
2023-01-13T06:08:50.126Z,75.49
2023-01-13T06:09:50.119Z,76.54
2023-01-13T06:10:50.105Z,74.87
2023-01-13T06:11:50.105Z,76.44
2023-01-13T06:12:50.080Z,75.73
2023-01-13T06:13:50.077Z,74.77
2023-01-13T06:14:50.051Z,72.71
2023-01-13T06:15:50.071Z,73.84
2023-01-13T06:16:50.027Z,73.20
2023-01-13T06:17:50.038Z,71.95
2023-01-13T06:18:49.992Z,71.95
2023-01-13T06:19:49.997Z,71.79
2023-01-13T06:20:49.974Z,72.24
2023-01-13T06:21:49.955Z,70.26
2023-01-13T06:22:49.947Z,70.78
2023-01-13T06:23:49.932Z,70.72
2023-01-13T06:24:49.929Z,70.05
2023-01-13T06:25:49.920Z,68.59
2023-01-13T06:26:49.900Z,68.46
2023-01-13T06:27:49.890Z,67.20
2023-01-13T06:28:49.887Z,66.87
2023-01-13T06:29:49.873Z,66.00
2023-01-13T06:30:49.858Z,66.11
2023-01-13T06:31:49.903Z,64.39
2023-01-13T06:32:49.839Z,64.60
2023-01-13T06:33:49.838Z,65.23
2023-01-13T06:34:49.826Z,70.19
2023-01-13T06:35:49.809Z,73.65
2023-01-13T06:36:49.784Z,76.38
2023-01-13T06:37:49.790Z,75.83
2023-01-13T06:38:49.756Z,73.07
2023-01-13T06:39:49.741Z,75.68
2023-01-13T06:40:49.733Z,77.05
2023-01-13T06:41:49.720Z,74.51
2023-01-13T06:42:49.711Z,72.93
2023-01-13T06:43:49.695Z,75.44
2023-01-13T06:44:49.679Z,78.47
2023-01-13T06:45:49.669Z,82.60
2023-01-13T06:46:49.739Z,79.00
2023-01-13T06:47:49.615Z,81.92
2023-01-13T06:48:49.600Z,81.82
2023-01-13T06:49:49.569Z,86.79
2023-01-13T06:50:49.581Z,91.54
2023-01-13T06:51:49.521Z,98.26
2023-01-13T06:52:49.499Z,103.89
2023-01-13T06:53:49.494Z,107.72
2023-01-13T06:54:49.457Z,110.40
2023-01-13T06:55:49.416Z,115.99
2023-01-13T06:56:49.389Z,117.31
2023-01-13T06:57:49.369Z,123.92
2023-01-13T06:58:49.339Z,127.18
2023-01-13T06:59:50.610Z,130.10
2023-01-13T07:00:49.365Z,131.10
2023-01-13T07:01:49.498Z,135.84
2023-01-13T07:02:49.287Z,140.43
2023-01-13T07:03:49.203Z,144.86
2023-01-13T07:04:49.185Z,143.38
2023-01-13T07:05:49.158Z,145.53
2023-01-13T07:06:49.130Z,151.93
2023-01-13T07:07:49.102Z,156.39
2023-01-13T07:08:49.070Z,157.46
2023-01-13T07:09:49.046Z,159.07
2023-01-13T07:10:49.037Z,160.80
2023-01-13T07:11:49.012Z,171.84
2023-01-13T07:12:48.984Z,172.20
2023-01-13T07:13:48.975Z,177.81
2023-01-13T07:14:48.950Z,179.34
2023-01-13T07:15:48.950Z,179.77
2023-01-13T07:16:48.991Z,181.24
2023-01-13T07:17:48.894Z,183.47
2023-01-13T09:07:46.716Z,221.25
2023-01-13T09:08:46.706Z,226.88
2023-01-13T09:09:46.680Z,226.04
2023-01-13T09:10:46.673Z,227.58
2023-01-13T09:11:46.656Z,228.66
2023-01-13T09:12:46.616Z,230.86
2023-01-13T09:13:46.604Z,232.79
2023-01-13T09:14:46.577Z,232.46
2023-01-13T09:15:46.664Z,232.69
2023-01-13T09:16:46.533Z,233.26
2023-01-13T09:17:46.497Z,234.40
2023-01-13T09:18:46.483Z,235.79
2023-01-13T09:19:46.459Z,236.72
2023-01-13T09:20:46.437Z,240.94
2023-01-13T09:21:46.424Z,238.70
2023-01-13T09:22:46.400Z,240.29
2023-01-13T09:23:46.375Z,243.31
2023-01-13T09:24:46.387Z,243.59
2023-01-13T09:25:46.329Z,243.76
2023-01-13T09:26:46.351Z,244.68
2023-01-13T09:27:46.295Z,244.01
2023-01-13T09:28:46.266Z,245.35
2023-01-13T09:29:46.248Z,246.20
2023-01-13T09:30:46.295Z,247.29
2023-01-13T09:31:46.196Z,244.90
2023-01-13T09:32:46.193Z,243.27
2023-01-13T09:33:46.158Z,242.55
2023-01-13T09:34:46.135Z,242.15
2023-01-13T09:35:46.116Z,242.53
2023-01-13T09:36:46.093Z,242.36
2023-01-13T09:37:46.068Z,232.19
2023-01-13T09:38:46.043Z,230.18
2023-01-13T09:39:46.026Z,224.18
2023-01-13T09:40:46.007Z,226.32
2023-01-13T09:41:45.975Z,224.16
2023-01-13T09:42:45.950Z,215.25
2023-01-13T09:43:45.927Z,213.50
2023-01-13T09:44:45.914Z,212.63
2023-01-13T09:45:45.900Z,212.75
2023-01-13T09:46:45.880Z,211.18
2023-01-13T09:47:45.868Z,211.37
2023-01-13T09:48:45.850Z,206.99
2023-01-13T09:49:45.833Z,204.87
2023-01-13T09:50:45.818Z,199.32
2023-01-13T09:51:45.891Z,206.66
2023-01-13T09:52:45.789Z,204.58
2023-01-13T09:53:45.765Z,209.69
2023-01-13T09:54:45.749Z,207.64
2023-01-13T09:55:45.718Z,213.52
2023-01-13T09:56:45.713Z,211.56
2023-01-13T09:57:45.692Z,215.10
2023-01-13T09:58:45.681Z,214.45
2023-01-13T09:59:45.655Z,218.42
2023-01-13T10:00:45.618Z,221.73
2023-01-13T10:01:45.592Z,223.51
2023-01-13T10:02:45.578Z,223.59
2023-01-13T10:03:45.611Z,233.79
2023-01-13T10:04:45.542Z,255.42
2023-01-13T10:05:45.492Z,300.64
2023-01-13T10:06:45.469Z,371.73
2023-01-13T10:07:45.456Z,325.81
2023-01-13T10:08:45.416Z,230.72
2023-01-13T10:09:45.386Z,208.81
2023-01-13T10:10:45.359Z,196.62
2023-01-13T10:11:45.330Z,198.58
2023-01-13T10:12:45.344Z,198.54
2023-01-13T10:13:45.284Z,192.71
2023-01-13T10:14:45.260Z,189.34
2023-01-13T10:15:45.272Z,194.14
2023-01-13T10:16:45.206Z,190.45
2023-01-13T10:17:45.179Z,189.02
2023-01-13T10:18:45.151Z,186.44
2023-01-13T10:19:45.132Z,187.89
2023-01-13T10:20:45.120Z,242.46
2023-01-13T10:21:45.075Z,254.36
2023-01-13T10:22:45.061Z,203.50
2023-01-13T10:23:45.043Z,190.50
2023-01-13T10:24:45.009Z,181.69
2023-01-13T10:25:44.992Z,177.61
2023-01-13T10:26:44.953Z,176.60
2023-01-13T10:27:44.936Z,177.17
2023-01-13T10:28:44.945Z,175.31
2023-01-13T10:29:44.888Z,174.82
2023-01-13T10:30:44.882Z,174.42
2023-01-13T10:31:44.842Z,174.93
2023-01-13T10:32:44.821Z,176.48
2023-01-13T10:33:44.811Z,176.12
2023-01-13T10:34:44.783Z,175.30
2023-01-13T10:35:44.749Z,175.56
2023-01-13T10:36:44.717Z,176.73
2023-01-13T10:37:44.691Z,177.15
2023-01-13T10:38:44.718Z,178.25
2023-01-13T10:39:44.663Z,179.44
2023-01-13T10:40:44.619Z,178.26
2023-01-13T10:41:44.594Z,180.41
2023-01-13T10:42:44.576Z,164.02
2023-01-13T10:43:44.574Z,112.23
2023-01-13T10:44:44.520Z,61.32
2023-01-13T10:45:44.493Z,25.00
2023-01-13T10:46:44.532Z,18.67
2023-01-13T10:47:44.460Z,23.88
2023-01-13T10:48:44.455Z,38.35
2023-01-13T10:49:44.440Z,22.98
2023-01-13T10:50:44.435Z,29.12
2023-01-13T10:51:44.432Z,36.50
2023-01-13T10:52:44.443Z,31.56
2023-01-13T10:53:44.433Z,57.35
2023-01-13T10:54:44.443Z,105.23
2023-01-13T10:55:44.413Z,121.53
2023-01-13T10:56:44.424Z,128.46
2023-01-13T10:57:44.395Z,131.68
2023-01-13T10:58:44.390Z,130.19
2023-01-13T10:59:44.381Z,130.42
2023-01-13T11:00:44.444Z,131.21
2023-01-13T11:01:44.426Z,131.99
2023-01-13T11:02:44.353Z,133.77
2023-01-13T11:03:44.315Z,130.39
2023-01-13T11:04:44.329Z,127.35
2023-01-13T11:05:44.290Z,125.61
2023-01-13T11:06:44.292Z,123.23
2023-01-13T11:07:44.244Z,124.16
2023-01-13T11:08:44.224Z,121.95
2023-01-13T11:09:44.189Z,122.64
2023-01-13T11:10:44.172Z,124.12
2023-01-13T11:11:44.165Z,125.28
2023-01-13T11:12:44.119Z,124.83
2023-01-13T11:13:44.107Z,121.38
2023-01-13T11:14:44.079Z,122.48
2023-01-13T11:15:44.056Z,124.44
2023-01-13T11:16:53.034Z,118.23
2023-01-13T11:17:45.016Z,118.32
2023-01-13T11:18:44.001Z,111.60
2023-01-13T11:19:43.967Z,114.88
2023-01-13T11:20:43.961Z,113.27
2023-01-13T11:21:43.928Z,114.63
2023-01-13T11:22:43.931Z,116.65
2023-01-13T11:23:44.150Z,116.86
2023-01-13T11:24:43.862Z,110.25
2023-01-13T11:25:43.846Z,103.67
2023-01-13T11:26:43.810Z,107.06
2023-01-13T11:27:44.608Z,104.83
2023-01-13T11:28:43.774Z,106.90
2023-01-13T11:29:43.739Z,106.77
2023-01-13T11:30:43.719Z,107.74
2023-01-13T11:31:43.723Z,110.50
2023-01-13T11:32:43.680Z,109.59
2023-01-13T11:33:43.677Z,107.08
2023-01-13T11:34:43.649Z,109.41
2023-01-13T11:35:43.646Z,115.28
2023-01-13T11:36:43.611Z,116.32
2023-01-13T11:37:43.584Z,125.01
2023-01-13T11:38:43.580Z,124.81
2023-01-13T11:39:43.548Z,126.18
2023-01-13T11:40:43.523Z,128.07
2023-01-13T11:41:43.489Z,123.72
2023-01-13T11:42:43.490Z,125.08
2023-01-13T11:43:43.435Z,129.52
2023-01-13T11:44:43.448Z,130.69
2023-01-13T11:45:43.393Z,129.32
2023-01-13T11:46:43.485Z,131.47
2023-01-13T11:47:43.332Z,133.17
2023-01-13T11:48:43.365Z,136.65
2023-01-13T11:49:43.283Z,135.49
2023-01-13T11:50:43.264Z,137.31
2023-01-13T11:51:43.223Z,132.75
2023-01-13T11:52:43.198Z,136.31
2023-01-13T11:53:43.176Z,138.94
2023-01-13T11:54:43.162Z,138.98
2023-01-13T11:55:43.139Z,135.12
2023-01-13T11:56:43.110Z,132.47
2023-01-13T11:57:43.078Z,132.95
2023-01-13T11:58:50.770Z,132.13
2023-01-13T11:59:44.046Z,136.85
2023-01-13T12:00:43.038Z,133.53
2023-01-13T12:01:43.043Z,133.50
2023-01-13T12:02:42.985Z,132.07
2023-01-13T12:03:42.978Z,133.19
2023-01-13T12:04:42.969Z,134.29
2023-01-13T12:05:42.959Z,133.77
2023-01-13T12:06:42.936Z,131.27
2023-01-13T12:07:42.923Z,130.98
2023-01-13T12:08:42.912Z,129.59
2023-01-13T12:09:42.894Z,133.36
2023-01-13T12:10:42.894Z,131.66
2023-01-13T12:11:42.877Z,130.76
2023-01-13T12:12:42.861Z,127.33
2023-01-13T12:13:42.864Z,124.35
2023-01-13T12:14:42.871Z,124.46
2023-01-13T12:15:42.834Z,125.35
2023-01-13T12:41:42.315Z,186.28
2023-01-13T12:42:42.306Z,176.01
2023-01-13T12:43:42.290Z,171.93
2023-01-13T12:44:42.252Z,166.64
2023-01-13T12:45:42.273Z,164.63
2023-01-13T12:46:42.213Z,161.82
2023-01-13T12:47:42.196Z,159.72
2023-01-13T12:48:42.165Z,157.02
2023-01-13T12:49:42.154Z,153.39
2023-01-13T12:50:42.129Z,150.94
2023-01-13T12:51:42.106Z,148.65
2023-01-13T12:52:42.086Z,148.56
2023-01-13T12:53:42.074Z,147.03
2023-01-13T12:54:42.055Z,147.20
2023-01-13T12:55:42.074Z,141.85
2023-01-13T12:56:42.037Z,140.85
2023-01-13T12:57:41.994Z,142.30
2023-01-13T12:58:41.973Z,141.25
2023-01-13T12:59:41.955Z,141.01
2023-01-13T13:00:41.925Z,135.67
2023-01-13T13:01:41.941Z,135.43
2023-01-13T13:02:41.946Z,135.59
2023-01-13T13:03:41.868Z,133.89
2023-01-13T13:04:41.878Z,133.74
2023-01-13T13:05:41.838Z,131.92
2023-01-13T13:06:41.807Z,128.69
2023-01-13T13:07:41.787Z,128.76
2023-01-13T13:08:41.845Z,129.00
2023-01-13T13:09:41.748Z,128.50
2023-01-13T13:10:41.718Z,127.24
2023-01-13T13:11:41.720Z,127.17
2023-01-13T13:12:41.679Z,122.16
2023-01-13T13:13:41.662Z,123.05
2023-01-13T13:14:41.745Z,123.26
2023-01-13T13:15:41.617Z,122.40
2023-01-13T13:16:41.700Z,121.07
2023-01-13T13:17:41.584Z,119.64
2023-01-13T13:18:41.571Z,119.08
2023-01-13T13:19:41.550Z,117.84
2023-01-13T13:20:41.529Z,119.02
2023-01-13T13:21:41.518Z,116.84
2023-01-13T13:22:41.496Z,114.34
2023-01-13T13:23:41.494Z,114.92
2023-01-13T13:24:41.454Z,114.50
2023-01-13T13:25:41.469Z,114.05
2023-01-13T13:26:41.491Z,113.73
2023-01-13T13:27:41.394Z,112.51
2023-01-13T13:28:41.373Z,112.54
2023-01-13T13:29:41.363Z,111.75
2023-01-13T13:30:41.378Z,111.28
2023-01-13T13:31:41.328Z,112.02
2023-01-13T13:32:41.300Z,111.03
2023-01-13T13:33:41.292Z,110.17
2023-01-13T13:34:41.273Z,112.44
2023-01-13T13:35:41.270Z,108.35
2023-01-13T13:36:41.237Z,110.50
2023-01-13T13:37:41.211Z,110.44
2023-01-13T13:38:41.215Z,109.52
2023-01-13T13:39:41.193Z,110.25
2023-01-13T13:40:41.176Z,110.40
2023-01-13T13:41:41.175Z,110.70
2023-01-13T13:42:41.149Z,110.87
2023-01-13T13:43:41.140Z,112.14
2023-01-13T13:44:41.124Z,111.89
2023-01-13T13:45:41.120Z,112.95
2023-01-13T13:46:41.106Z,110.48
2023-01-13T13:47:41.088Z,111.67
2023-01-13T13:48:41.071Z,110.59
2023-01-13T13:49:41.157Z,112.36
2023-01-13T13:50:41.031Z,112.48
2023-01-13T13:51:41.020Z,112.49
2023-01-13T13:52:41.008Z,112.49
2023-01-13T13:53:41.000Z,111.61
2023-01-13T13:54:41.014Z,112.31
2023-01-13T13:55:40.973Z,111.02
2023-01-13T13:56:40.989Z,113.49
2023-01-13T13:57:40.945Z,112.34
2023-01-13T13:58:40.929Z,110.92
2023-01-13T13:59:40.924Z,111.12
2023-01-13T14:00:40.894Z,112.34
2023-01-13T14:01:41.100Z,111.86
2023-01-13T14:02:40.862Z,110.39
2023-01-13T14:03:40.845Z,109.56
2023-01-13T14:04:40.860Z,111.09
2023-01-13T14:05:40.814Z,110.06
2023-01-13T14:06:40.801Z,110.39
2023-01-13T14:07:40.787Z,110.57
2023-01-13T14:08:40.733Z,110.70
2023-01-13T14:09:40.720Z,111.83
2023-01-13T14:10:40.719Z,110.29
2023-01-13T14:11:40.697Z,110.38
2023-01-13T14:12:40.672Z,111.05
2023-01-13T14:13:40.660Z,109.62
2023-01-13T14:14:40.646Z,110.73
2023-01-13T14:15:40.657Z,111.15
2023-01-13T14:16:40.625Z,111.09
2023-01-13T14:17:40.612Z,108.71
2023-01-13T14:18:40.598Z,109.01
2023-01-13T14:19:40.602Z,110.69
2023-01-13T14:20:40.594Z,110.52
2023-01-13T14:21:40.557Z,108.70
2023-01-13T14:22:40.543Z,108.41
2023-01-13T14:23:40.539Z,109.79
2023-01-13T14:24:40.516Z,108.96
2023-01-13T14:25:40.512Z,109.75
2023-01-13T14:26:40.502Z,109.68
2023-01-13T14:27:40.498Z,108.86
2023-01-13T14:28:40.504Z,108.44
2023-01-13T14:29:40.468Z,108.57
2023-01-13T14:30:40.450Z,109.83
2023-01-13T14:31:40.442Z,106.92
2023-01-13T14:32:40.420Z,108.51
2023-01-13T14:33:40.408Z,107.93
2023-01-13T14:34:40.399Z,107.58
2023-01-13T14:35:40.398Z,107.82
2023-01-13T14:36:40.389Z,106.95
2023-01-13T14:37:40.380Z,108.74
2023-01-13T14:38:40.376Z,106.78
2023-01-13T14:39:40.372Z,108.79
2023-01-13T14:40:40.356Z,108.42
2023-01-13T14:41:40.361Z,106.09
2023-01-13T14:42:40.349Z,105.70
2023-01-13T14:43:40.327Z,107.45
2023-01-13T14:44:40.334Z,105.76
2023-01-13T14:45:40.309Z,106.06
2023-01-13T14:46:40.339Z,106.23
2023-01-13T14:47:40.294Z,105.41
2023-01-13T14:48:40.278Z,107.30
2023-01-13T14:49:40.262Z,105.43
2023-01-13T14:50:40.249Z,106.81
2023-01-13T14:51:40.244Z,105.26
2023-01-13T14:52:40.253Z,105.40
2023-01-13T14:53:40.228Z,105.64
2023-01-13T14:54:40.220Z,105.69
2023-01-13T14:55:40.225Z,105.88
2023-01-13T14:56:40.213Z,107.30
2023-01-13T14:57:40.192Z,105.00
2023-01-13T14:58:40.167Z,105.00
2023-01-13T14:59:40.161Z,105.06
2023-01-13T15:00:40.131Z,104.41
2023-01-13T15:01:40.286Z,105.28
2023-01-13T15:02:40.138Z,101.43
2023-01-13T15:03:42.019Z,104.86
2023-01-13T15:04:40.063Z,104.45
2023-01-13T15:05:40.036Z,105.89
2023-01-13T15:06:40.025Z,105.57
2023-01-13T15:07:40.014Z,104.25
2023-01-13T15:08:40.026Z,101.91
2023-01-13T15:09:39.981Z,102.12
2023-01-13T15:10:39.958Z,100.79
2023-01-13T15:11:39.945Z,103.48
2023-01-13T15:12:39.936Z,103.08
2023-01-13T15:13:40.961Z,104.61
2023-01-13T15:14:39.896Z,105.27
2023-01-13T15:15:39.886Z,104.57
2023-01-13T15:16:39.876Z,102.14
2023-01-13T15:17:39.860Z,102.01
2023-01-13T15:18:39.840Z,103.03
2023-01-13T15:19:39.818Z,101.38
2023-01-13T15:20:39.796Z,103.66
2023-01-13T15:21:39.777Z,101.49
2023-01-13T15:22:39.752Z,101.88
2023-01-13T15:23:39.752Z,100.82
2023-01-13T15:24:39.712Z,101.46
2023-01-13T15:25:39.711Z,100.74
2023-01-13T15:26:39.685Z,100.24
2023-01-13T15:27:39.681Z,102.84
2023-01-13T15:28:39.668Z,101.87
2023-01-13T15:29:39.655Z,100.87
2023-01-13T15:30:39.669Z,99.84
2023-01-13T15:31:39.624Z,102.30
2023-01-13T15:32:39.609Z,100.76
2023-01-13T15:33:39.597Z,100.95
2023-01-13T15:34:39.562Z,100.27
2023-01-13T15:35:39.545Z,101.23
2023-01-13T15:36:39.538Z,100.53
2023-01-13T15:37:39.504Z,99.87
2023-01-13T15:38:39.480Z,99.61
2023-01-13T15:39:39.474Z,101.07
2023-01-13T15:40:39.443Z,99.38
2023-01-13T15:41:39.432Z,99.07
2023-01-13T15:42:39.420Z,98.12
2023-01-13T15:43:39.402Z,98.85
2023-01-13T15:44:39.374Z,99.43
2023-01-13T15:45:39.356Z,99.83
2023-01-13T15:46:39.529Z,98.27
2023-01-13T15:47:39.339Z,98.85
2023-01-13T15:48:39.321Z,99.69
2023-01-13T15:49:39.306Z,98.83
2023-01-13T15:50:39.292Z,99.14
2023-01-13T15:51:39.286Z,97.22
2023-01-13T15:52:39.276Z,100.61
2023-01-13T15:53:39.284Z,97.97
2023-01-13T15:54:39.274Z,98.87
2023-01-13T15:55:39.245Z,99.51
2023-01-13T15:56:39.255Z,99.45
2023-01-13T15:57:39.230Z,98.34
2023-01-13T15:58:39.217Z,98.26
2023-01-13T15:59:39.202Z,97.82
2023-01-13T16:00:39.223Z,98.43
2023-01-13T16:01:39.243Z,99.29
2023-01-13T16:02:39.266Z,98.03
2023-01-13T16:03:39.163Z,98.72
2023-01-13T16:04:39.145Z,98.51
2023-01-13T16:05:39.138Z,98.08
2023-01-13T16:06:39.134Z,97.61
2023-01-13T16:07:39.130Z,98.27
2023-01-13T16:08:39.114Z,97.32
2023-01-13T16:09:39.113Z,97.00
2023-01-13T16:10:39.103Z,96.24
2023-01-13T16:11:39.094Z,96.86
2023-01-13T16:12:39.091Z,97.83
2023-01-13T16:13:39.097Z,97.93
2023-01-13T16:14:39.101Z,97.87
2023-01-13T16:15:39.065Z,96.65
2023-01-13T16:16:39.097Z,96.53
2023-01-13T16:17:39.049Z,96.01
2023-01-13T16:18:39.035Z,97.37
2023-01-13T16:19:39.028Z,96.89
2023-01-13T16:20:39.013Z,98.17
2023-01-13T16:21:38.998Z,95.61
2023-01-13T16:22:38.981Z,96.27
2023-01-13T16:23:38.971Z,94.75
2023-01-13T16:24:38.969Z,93.98
2023-01-13T16:25:38.960Z,96.68
2023-01-13T16:26:38.982Z,95.44
2023-01-13T16:27:38.949Z,97.26
2023-01-13T16:28:38.935Z,95.61
2023-01-13T16:29:38.917Z,96.35
2023-01-13T16:30:38.909Z,96.19
2023-01-13T16:31:38.933Z,96.18
2023-01-13T18:53:37.096Z,90.09
2023-01-13T20:22:35.819Z,86.68
2023-01-13T20:23:35.804Z,86.64
2023-01-13T20:24:35.784Z,86.98
2023-01-13T20:25:35.833Z,85.96
2023-01-13T20:26:35.756Z,86.46
2023-01-13T20:27:35.749Z,85.79
2023-01-13T20:28:35.734Z,84.86
2023-01-13T20:29:35.714Z,85.41
2023-01-13T20:30:35.701Z,85.95
2023-01-13T20:31:35.723Z,84.53
2023-01-13T20:32:35.683Z,85.06
2023-01-13T20:33:35.668Z,82.97
2023-01-13T20:34:35.658Z,82.91
2023-01-13T20:35:35.668Z,84.88
2023-01-13T20:36:35.625Z,83.68
2023-01-13T20:37:35.627Z,84.30
2023-01-13T20:38:35.621Z,81.85
2023-01-13T20:39:35.626Z,83.16
2023-01-13T20:40:35.604Z,83.30
2023-01-13T20:41:35.601Z,83.26
2023-01-13T20:42:35.593Z,82.34
2023-01-13T20:43:35.581Z,82.38
2023-01-13T20:44:35.577Z,81.62
2023-01-13T20:45:35.561Z,81.11
2023-01-13T20:46:35.621Z,81.15
2023-01-13T20:47:35.547Z,82.09
2023-01-13T20:48:35.535Z,80.78
2023-01-13T20:49:35.537Z,79.34
2023-01-13T20:50:35.515Z,80.49
2023-01-13T20:51:35.509Z,80.46
2023-01-13T20:52:35.501Z,77.05
2023-01-13T20:53:35.480Z,77.72
2023-01-13T20:54:35.465Z,79.02
2023-01-13T20:55:35.447Z,77.06
2023-01-13T20:56:35.421Z,76.73
2023-01-13T20:57:35.408Z,75.47
2023-01-13T20:58:35.388Z,77.37
2023-01-13T20:59:35.365Z,77.17
2023-01-13T21:00:35.350Z,76.54
2023-01-13T21:01:35.353Z,77.22
2023-01-13T21:02:35.297Z,75.54
2023-01-13T21:03:35.300Z,75.88
2023-01-13T21:04:35.283Z,75.10
2023-01-13T21:05:35.255Z,76.52
2023-01-13T21:06:35.230Z,74.76
2023-01-13T21:07:35.210Z,74.70
2023-01-13T21:08:35.189Z,75.31
2023-01-13T21:09:35.171Z,73.90
2023-01-13T21:10:35.161Z,74.40
2023-01-13T21:11:35.139Z,72.29
2023-01-13T21:12:35.116Z,73.68
2023-01-13T21:13:35.103Z,73.70
2023-01-13T21:14:35.064Z,73.73
2023-01-13T21:15:35.070Z,71.80
2023-01-13T21:16:35.057Z,73.95
2023-01-13T21:17:35.043Z,73.34
2023-01-13T21:18:35.030Z,73.51
2023-01-13T21:19:35.022Z,73.54
2023-01-13T21:20:35.010Z,72.94
2023-01-13T21:21:34.989Z,73.60
2023-01-13T21:22:34.975Z,73.58
2023-01-13T21:23:34.959Z,71.63
2023-01-13T21:24:34.945Z,70.61
2023-01-13T21:25:35.572Z,72.69
2023-01-13T21:26:34.958Z,71.73
2023-01-13T21:27:34.894Z,72.58
2023-01-13T21:28:34.880Z,72.66
2023-01-13T21:29:34.866Z,72.72
2023-01-13T21:30:34.856Z,71.22
2023-01-13T21:31:34.871Z,71.21